createdAt,value
2023-10-25T00:00:34.491Z,3.42
2023-10-25T00:03:02.657Z,5.07
2023-10-25T00:05:32.546Z,4.32
2023-10-25T00:08:00.576Z,4.28
2023-10-25T00:10:28.510Z,5.10
2023-10-25T00:12:56.456Z,4.25
2023-10-25T00:15:26.600Z,3.92
2023-10-25T00:17:54.550Z,5.30
2023-10-25T00:20:22.504Z,4.00
2023-10-25T00:22:50.399Z,5.28
2023-10-25T00:25:18.327Z,5.80
2023-10-25T00:27:46.381Z,3.90
2023-10-25T00:30:14.845Z,5.65
2023-10-25T00:32:44.366Z,4.30
2023-10-25T00:35:12.293Z,2.60
2023-10-25T00:37:40.260Z,3.63
2023-10-25T00:40:09.052Z,4.75
2023-10-25T00:42:37.035Z,3.35
2023-10-25T00:45:05.318Z,5.43
2023-10-25T00:47:33.330Z,4.07
2023-10-25T00:50:03.469Z,3.13
2023-10-25T00:52:31.362Z,5.22
2023-10-25T00:54:59.543Z,3.90
2023-10-25T00:57:27.497Z,2.55
2023-10-25T00:59:55.454Z,3.88
2023-10-25T01:02:23.397Z,3.35
2023-10-25T01:04:51.466Z,2.83
2023-10-25T01:07:20.736Z,3.63
2023-10-25T01:09:48.649Z,3.95
2023-10-25T01:12:16.775Z,4.38
2023-10-25T01:14:44.954Z,5.63
2023-10-25T01:17:13.024Z,3.30
2023-10-25T01:19:41.231Z,10.15
2023-10-25T01:22:09.428Z,6.10
2023-10-25T01:24:38.832Z,5.10
2023-10-25T01:27:06.910Z,6.75
2023-10-25T01:29:34.831Z,4.60
2023-10-25T01:32:01.804Z,4.60
2023-10-25T01:34:30.550Z,5.75
2023-10-25T01:36:58.490Z,6.50
2023-10-25T01:39:26.971Z,3.95
2023-10-25T01:41:56.236Z,6.93
2023-10-25T01:44:24.204Z,3.15
2023-10-25T01:46:52.220Z,4.72
2023-10-25T01:49:20.219Z,8.02
2023-10-25T01:51:48.155Z,5.25
2023-10-25T01:54:16.105Z,3.45
2023-10-25T01:56:44.086Z,3.20
2023-10-25T01:59:14.094Z,4.00
2023-10-25T02:01:42.104Z,8.48
2023-10-25T02:04:10.526Z,4.78
2023-10-25T02:06:38.672Z,4.03
2023-10-25T02:09:06.828Z,4.78
2023-10-25T02:11:35.405Z,4.57
2023-10-25T02:14:04.320Z,3.13
2023-10-25T02:16:33.810Z,7.60
2023-10-25T02:19:02.041Z,3.55
2023-10-25T02:21:30.060Z,3.17
2023-10-25T02:23:57.965Z,4.38
2023-10-25T02:26:25.877Z,4.28
2023-10-25T02:28:54.592Z,6.07
2023-10-25T02:31:22.620Z,5.15
2023-10-25T02:33:51.910Z,4.97
2023-10-25T02:36:19.989Z,5.63
2023-10-25T02:38:48.715Z,6.57
2023-10-25T02:41:17.127Z,3.72
2023-10-25T02:43:45.243Z,6.38
2023-10-25T02:46:14.030Z,4.15
2023-10-25T02:48:42.167Z,5.50
2023-10-25T02:51:11.503Z,4.10
2023-10-25T02:53:39.457Z,4.10
2023-10-25T02:56:08.229Z,3.17
2023-10-25T02:58:36.311Z,5.10
2023-10-25T03:01:04.407Z,4.15
2023-10-25T03:03:33.981Z,4.43
2023-10-25T03:06:02.022Z,3.72
2023-10-25T03:08:32.255Z,3.60
2023-10-25T03:11:00.194Z,4.68
2023-10-25T03:13:28.214Z,3.85
2023-10-25T03:15:56.342Z,3.78
2023-10-25T03:18:24.396Z,5.05
2023-10-25T03:20:52.326Z,3.95
2023-10-25T03:23:21.609Z,6.93
2023-10-25T03:25:50.872Z,4.03
2023-10-25T03:28:18.901Z,5.25
2023-10-25T03:30:47.583Z,4.93
2023-10-25T03:33:15.649Z,5.22
2023-10-25T03:35:43.655Z,2.90
2023-10-25T03:38:11.626Z,5.90
2023-10-25T03:40:39.557Z,3.53
2023-10-25T03:43:08.889Z,3.55
2023-10-25T03:45:36.819Z,4.65
2023-10-25T03:48:05.535Z,4.63
2023-10-25T03:50:33.642Z,7.57
2023-10-25T03:53:01.676Z,4.10
2023-10-25T03:55:32.444Z,3.15
2023-10-25T03:58:00.468Z,4.35
2023-10-25T04:00:29.932Z,6.15
2023-10-25T04:02:57.979Z,5.45
2023-10-25T04:05:26.596Z,5.82
2023-10-25T04:07:54.501Z,3.33
2023-10-25T04:10:22.411Z,5.20
2023-10-25T04:12:50.338Z,4.70
2023-10-25T04:15:18.800Z,5.28
2023-10-25T04:17:48.102Z,3.88
2023-10-25T04:20:16.209Z,4.15
2023-10-25T04:22:44.221Z,3.75
2023-10-25T04:25:13.556Z,3.35
2023-10-25T04:27:41.782Z,4.88
2023-10-25T04:30:10.869Z,3.20
2023-10-25T04:32:38.824Z,2.47
2023-10-25T04:35:08.473Z,4.97
2023-10-25T04:37:36.405Z,10.40
2023-10-25T04:40:04.972Z,5.55
2023-10-25T04:42:32.991Z,3.53
2023-10-25T04:45:00.882Z,3.50
2023-10-25T04:47:28.880Z,3.63
2023-10-25T04:49:57.757Z,4.75
2023-10-25T04:52:27.014Z,3.70
2023-10-25T04:54:54.951Z,3.88
2023-10-25T04:57:22.971Z,3.60
2023-10-25T04:59:51.606Z,2.85
2023-10-25T05:02:19.520Z,6.55
2023-10-25T05:04:48.259Z,3.83
2023-10-25T05:07:16.380Z,3.05
2023-10-25T05:09:46.240Z,4.20
2023-10-25T05:12:14.355Z,6.55
2023-10-25T05:14:43.023Z,3.92
2023-10-25T05:17:11.440Z,4.10
2023-10-25T05:19:39.672Z,3.70
2023-10-25T05:22:08.106Z,4.78
2023-10-25T05:24:36.320Z,3.47
2023-10-25T05:27:05.934Z,3.92
2023-10-25T05:29:34.141Z,4.75
2023-10-25T05:32:01.996Z,4.53
2023-10-25T05:34:30.139Z,3.80
2023-10-25T05:36:58.485Z,5.18
2023-10-25T05:39:26.592Z,4.03
2023-10-25T05:41:54.541Z,4.28
2023-10-25T05:44:24.257Z,3.95
2023-10-25T05:46:52.261Z,2.72
2023-10-25T05:49:20.554Z,7.32
2023-10-25T05:51:48.940Z,2.83
2023-10-25T05:54:17.022Z,4.43
2023-10-25T05:56:49.175Z,4.18
2023-10-25T05:59:19.467Z,2.33
2023-10-25T06:01:50.025Z,5.82
2023-10-25T06:04:18.378Z,8.00
2023-10-25T06:06:46.619Z,4.03
2023-10-25T06:09:15.479Z,5.97
2023-10-25T06:11:43.557Z,6.05
2023-10-25T06:14:11.912Z,3.38
2023-10-25T06:16:39.901Z,4.90
2023-10-25T06:19:09.309Z,4.35
2023-10-25T06:21:37.278Z,5.07
2023-10-25T06:24:05.533Z,3.08
2023-10-25T06:26:33.450Z,6.97
2023-10-25T06:29:01.399Z,5.85
2023-10-25T06:31:29.425Z,2.13
2023-10-25T06:33:57.411Z,6.28
2023-10-25T06:36:27.100Z,6.30
2023-10-25T06:38:55.228Z,3.72
2023-10-25T06:41:23.874Z,10.27
2023-10-25T06:43:54.876Z,2.83
2023-10-25T06:46:23.198Z,6.57
2023-10-25T06:48:53.469Z,10.18
2023-10-25T06:51:21.773Z,9.93
2023-10-25T06:53:51.530Z,14.40
2023-10-25T06:56:19.805Z,11.30
2023-10-25T06:58:48.121Z,18.55
2023-10-25T07:01:18.816Z,17.40
2023-10-25T07:03:47.447Z,9.45
2023-10-25T07:06:16.849Z,7.25
2023-10-25T07:08:49.575Z,8.80
2023-10-25T07:11:18.984Z,9.95
2023-10-25T07:13:46.961Z,5.50
2023-10-25T07:16:14.984Z,5.13
2023-10-25T07:18:44.421Z,9.10
2023-10-25T07:21:12.573Z,8.63
2023-10-25T07:23:40.547Z,16.35
2023-10-25T07:26:08.821Z,19.17
2023-10-25T07:28:38.173Z,30.83
2023-10-25T07:31:06.171Z,16.52
2023-10-25T07:33:34.211Z,11.25
2023-10-25T07:36:02.066Z,12.68
2023-10-25T07:38:30.015Z,15.85
2023-10-25T07:40:57.933Z,9.02
2023-10-25T07:43:25.898Z,12.82
2023-10-25T07:45:56.572Z,14.25
2023-10-25T07:48:24.969Z,9.18
2023-10-25T07:50:52.870Z,13.32
2023-10-25T07:53:20.768Z,17.13
2023-10-25T07:58:27.496Z,12.40
2023-10-25T08:00:58.000Z,16.45
2023-10-25T08:03:27.573Z,7.95
2023-10-25T08:05:55.697Z,15.55
2023-10-25T08:08:23.748Z,10.63
2023-10-25T08:11:00.032Z,14.50
2023-10-25T08:13:27.940Z,40.38
2023-10-25T08:16:00.297Z,13.32
2023-10-25T08:18:28.462Z,22.08
2023-10-25T08:20:59.587Z,12.35
2023-10-25T08:23:28.661Z,13.68
2023-10-25T08:25:59.362Z,16.92
2023-10-25T08:28:27.542Z,8.75
2023-10-25T08:30:55.722Z,11.75
2023-10-25T08:33:25.167Z,15.50
2023-10-25T08:36:01.856Z,14.45
2023-10-25T08:38:30.386Z,20.45
2023-10-25T08:41:02.407Z,16.20
2023-10-25T08:43:30.337Z,17.50
2023-10-25T08:45:58.713Z,15.70
2023-10-25T08:48:28.468Z,12.45
2023-10-25T08:50:56.770Z,12.57
2023-10-25T08:53:25.330Z,17.77
2023-10-25T08:55:53.524Z,12.10
2023-10-25T08:58:21.757Z,12.35
2023-10-25T09:00:50.844Z,13.73
2023-10-25T09:03:37.823Z,13.13
2023-10-25T09:06:07.942Z,18.77
2023-10-25T09:08:36.325Z,14.10
2023-10-25T09:11:04.763Z,12.82
2023-10-25T09:13:32.915Z,11.93
2023-10-25T09:16:07.370Z,14.68
2023-10-25T09:18:35.858Z,13.55
2023-10-25T09:21:12.201Z,10.45
2023-10-25T09:23:42.990Z,20.23
2023-10-25T09:26:14.768Z,12.60
2023-10-25T09:28:42.906Z,16.48
2023-10-25T09:31:20.799Z,16.50
2023-10-25T09:33:49.028Z,11.50
2023-10-25T09:36:17.104Z,11.25
2023-10-25T09:38:46.406Z,11.32
2023-10-25T09:41:15.409Z,9.02
2023-10-25T09:43:43.694Z,12.60
2023-10-25T09:46:11.612Z,12.60
2023-10-25T09:48:39.566Z,12.73
2023-10-25T09:51:08.415Z,13.60
2023-10-25T09:53:38.359Z,5.72
2023-10-25T09:56:07.619Z,9.93
2023-10-25T09:58:36.431Z,10.13
2023-10-25T10:01:04.948Z,11.23
2023-10-25T10:03:37.005Z,10.98
2023-10-25T10:06:07.171Z,6.70
2023-10-25T10:08:38.537Z,8.43
2023-10-25T10:11:08.375Z,7.95
2023-10-25T10:13:36.438Z,11.45
2023-10-25T10:16:05.700Z,8.02
2023-10-25T10:18:34.118Z,5.05
2023-10-25T10:21:02.479Z,7.25
2023-10-25T10:23:35.050Z,8.57
2023-10-25T10:26:03.380Z,9.85
2023-10-25T10:28:43.269Z,5.55
2023-10-25T10:31:11.754Z,10.60
2023-10-25T10:33:46.075Z,13.35
2023-10-25T10:36:22.882Z,6.43
2023-10-25T10:39:09.319Z,5.18
2023-10-25T10:41:37.267Z,3.50
2023-10-25T10:44:06.781Z,5.57
2023-10-25T10:46:36.209Z,5.28
2023-10-25T10:49:04.461Z,5.93
2023-10-25T10:51:32.432Z,6.93
2023-10-25T10:54:00.334Z,10.52
2023-10-25T10:56:28.233Z,15.13
2023-10-25T10:58:56.194Z,7.05
2023-10-25T11:01:25.642Z,6.30
2023-10-25T11:03:53.707Z,4.25
2023-10-25T11:06:25.394Z,5.47
2023-10-25T11:08:53.448Z,6.22
2023-10-25T11:11:21.813Z,14.07
2023-10-25T11:13:50.178Z,6.38
2023-10-25T11:16:18.082Z,7.40
2023-10-25T11:18:47.443Z,7.00
2023-10-25T11:21:16.239Z,7.35
2023-10-25T11:23:44.268Z,9.10
2023-10-25T11:26:12.245Z,5.30
2023-10-25T11:28:40.420Z,8.90
2023-10-25T11:31:08.372Z,4.13
2023-10-25T11:33:44.626Z,5.50
2023-10-25T11:36:13.935Z,4.00
2023-10-25T11:38:45.375Z,6.53
2023-10-25T11:41:13.368Z,7.28
2023-10-25T11:43:41.321Z,7.05
2023-10-25T11:46:09.393Z,6.63
2023-10-25T11:48:37.513Z,4.00
2023-10-25T11:51:08.041Z,5.07
2023-10-25T11:53:37.406Z,5.00
2023-10-25T11:56:05.528Z,5.90
2023-10-25T11:58:33.443Z,10.23
2023-10-25T12:01:09.234Z,5.28
2023-10-25T12:03:39.643Z,4.40
2023-10-25T12:06:07.812Z,5.50
2023-10-25T12:08:37.074Z,5.60
2023-10-25T12:11:05.000Z,7.13
2023-10-25T12:13:32.865Z,5.38
2023-10-25T12:16:01.769Z,3.92
2023-10-25T12:18:30.047Z,5.75
2023-10-25T12:20:58.079Z,7.53
2023-10-25T12:23:25.989Z,8.93
2023-10-25T12:25:55.206Z,4.88
2023-10-25T12:28:23.076Z,4.55
2023-10-25T12:30:53.868Z,5.40
2023-10-25T12:33:22.748Z,4.65
2023-10-25T12:35:51.008Z,3.63
2023-10-25T12:38:19.019Z,3.00
2023-10-25T12:40:51.205Z,4.60
2023-10-25T12:43:20.586Z,7.68
2023-10-25T12:45:49.039Z,2.80
2023-10-25T12:48:17.345Z,4.93
2023-10-25T12:50:45.691Z,5.82
2023-10-25T12:53:13.931Z,5.28
2023-10-25T12:55:41.917Z,5.30
2023-10-25T12:58:09.847Z,3.65
2023-10-25T13:00:39.145Z,3.40
2023-10-25T13:03:08.086Z,3.88
2023-10-25T13:05:36.168Z,3.83
2023-10-25T13:08:04.668Z,4.18
2023-10-25T13:10:32.589Z,4.07
2023-10-25T13:13:00.491Z,3.60
2023-10-25T13:15:28.345Z,6.03
2023-10-25T13:17:59.726Z,5.75
2023-10-25T13:20:28.976Z,2.60
2023-10-25T13:23:00.875Z,5.40
2023-10-25T13:25:29.315Z,3.65
2023-10-25T13:27:57.263Z,3.90
2023-10-25T13:30:26.451Z,2.97
2023-10-25T13:32:55.537Z,3.47
2023-10-25T13:35:24.796Z,7.68
2023-10-25T13:37:52.893Z,5.57
2023-10-25T13:40:21.021Z,3.00
2023-10-25T13:42:48.939Z,3.50
2023-10-25T13:45:16.868Z,3.42
2023-10-25T13:47:45.104Z,2.83
2023-10-25T13:50:13.137Z,1.58
2023-10-25T13:52:42.444Z,2.38
2023-10-25T13:55:10.574Z,4.03
2023-10-25T13:57:38.695Z,3.20
2023-10-25T14:00:08.668Z,2.03
2023-10-25T14:02:41.619Z,2.28
2023-10-25T14:05:09.945Z,2.28
2023-10-25T14:07:37.817Z,1.73
2023-10-25T14:10:09.905Z,3.38
2023-10-25T14:12:37.883Z,2.45
2023-10-25T14:15:06.675Z,4.20
2023-10-25T14:17:34.665Z,2.58
2023-10-25T14:20:02.701Z,4.47
2023-10-25T14:22:30.609Z,3.22
2023-10-25T14:24:58.584Z,1.77
2023-10-25T14:27:27.803Z,3.15
2023-10-25T14:29:55.855Z,3.65
2023-10-25T14:32:23.776Z,3.67
2023-10-25T14:34:52.877Z,2.95
2023-10-25T14:37:20.986Z,3.22
2023-10-25T14:39:48.867Z,2.67
2023-10-25T14:42:16.730Z,3.42
2023-10-25T14:44:46.086Z,3.05
2023-10-25T14:47:14.422Z,2.90
2023-10-25T14:49:42.305Z,2.83
2023-10-25T14:52:12.963Z,2.38
2023-10-25T14:54:41.073Z,3.17
2023-10-25T14:57:09.230Z,3.70
2023-10-25T14:59:37.158Z,3.03
2023-10-25T15:02:06.456Z,4.00
2023-10-25T15:04:34.473Z,4.22
2023-10-25T15:07:02.382Z,3.35
2023-10-25T15:09:30.385Z,3.03
2023-10-25T15:11:59.069Z,3.03
2023-10-25T15:14:33.447Z,4.45
2023-10-25T15:17:05.918Z,8.88
2023-10-25T15:19:35.166Z,5.70
2023-10-25T15:22:03.184Z,10.20
2023-10-25T15:24:31.051Z,5.03
2023-10-25T15:26:59.225Z,5.78
2023-10-25T15:29:27.174Z,8.77
2023-10-25T15:31:55.208Z,7.22
2023-10-25T15:34:24.647Z,10.13
2023-10-25T15:36:52.536Z,12.02
2023-10-25T15:39:20.499Z,7.80
2023-10-25T15:41:48.595Z,6.93
2023-10-25T15:44:16.712Z,10.93
2023-10-25T15:46:45.355Z,9.43
2023-10-25T15:49:13.321Z,12.73
2023-10-25T15:51:42.587Z,10.30
2023-10-25T15:54:10.578Z,11.73
2023-10-25T15:56:38.574Z,8.32
2023-10-25T15:59:07.819Z,6.57
2023-10-25T16:01:45.119Z,9.05
2023-10-25T16:04:20.529Z,8.75
2023-10-25T16:06:49.888Z,9.98
2023-10-25T16:09:17.817Z,7.30
2023-10-25T16:11:45.762Z,4.28
2023-10-25T16:14:13.680Z,5.85
2023-10-25T16:16:41.652Z,5.28
2023-10-25T16:19:09.847Z,5.20
2023-10-25T16:21:37.909Z,7.10
2023-10-25T16:24:08.586Z,4.50
2023-10-25T16:26:36.503Z,8.80
2023-10-25T16:29:04.353Z,3.20
2023-10-25T16:31:32.481Z,7.47
2023-10-25T16:34:01.084Z,7.03
2023-10-25T16:36:28.980Z,8.40
2023-10-25T16:38:56.964Z,7.72
2023-10-25T16:41:26.284Z,6.03
2023-10-25T16:43:54.181Z,6.82
2023-10-25T16:46:22.159Z,6.70
2023-10-25T16:48:50.324Z,11.02
2023-10-25T16:51:19.614Z,4.22
2023-10-25T16:53:49.112Z,5.05
2023-10-25T16:56:18.285Z,7.50
2023-10-25T16:58:47.554Z,7.07
2023-10-25T17:01:16.095Z,3.15
2023-10-25T17:03:44.711Z,4.35
2023-10-25T17:06:13.720Z,9.40
2023-10-25T17:08:42.436Z,7.90
2023-10-25T17:11:10.564Z,3.90
2023-10-25T17:13:39.479Z,3.42
2023-10-25T17:16:09.915Z,4.78
2023-10-25T17:18:40.436Z,4.97
2023-10-25T17:21:11.516Z,9.23
2023-10-25T17:23:39.720Z,7.18
2023-10-25T17:26:07.894Z,7.25
2023-10-25T17:28:36.191Z,5.03
2023-10-25T17:31:04.415Z,4.15
2023-10-25T17:33:33.788Z,3.03
2023-10-25T17:36:02.292Z,5.88
2023-10-25T17:38:31.920Z,6.22
2023-10-25T17:41:01.269Z,2.95
2023-10-25T17:43:29.136Z,4.00
2023-10-25T17:48:28.757Z,6.18
2023-10-25T17:50:58.299Z,9.40
2023-10-25T17:53:26.339Z,3.47
2023-10-25T17:55:54.280Z,8.65
2023-10-25T17:58:22.338Z,5.07
2023-10-25T18:00:50.762Z,6.07
2023-10-25T18:03:18.881Z,7.10
2023-10-25T18:05:47.140Z,8.77
2023-10-25T18:08:22.286Z,4.78
2023-10-25T18:10:50.838Z,5.75
2023-10-25T18:13:18.888Z,9.10
2023-10-25T18:15:46.980Z,5.18
2023-10-25T18:18:15.140Z,9.68
2023-10-25T18:20:44.646Z,8.05
2023-10-25T18:23:12.932Z,6.93
2023-10-25T18:25:42.397Z,10.90
2023-10-25T18:28:10.276Z,6.57
2023-10-25T18:32:01.401Z,10.02
2023-10-25T18:33:28.048Z,8.75
2023-10-25T18:35:56.379Z,11.10
2023-10-25T18:38:24.410Z,9.18
2023-10-25T18:40:57.069Z,11.93
2023-10-25T18:43:25.516Z,6.95
2023-10-25T18:45:53.952Z,8.45
2023-10-25T18:48:24.923Z,6.80
2023-10-25T18:50:53.144Z,4.22
2023-10-25T18:53:21.067Z,6.57
2023-10-25T18:55:49.057Z,4.35
2023-10-25T18:58:18.600Z,6.70
2023-10-25T19:00:47.188Z,8.70
2023-10-25T19:03:15.425Z,8.20
2023-10-25T19:06:27.255Z,10.32
2023-10-25T19:08:39.222Z,11.13
2023-10-25T19:11:07.392Z,8.88
2023-10-25T19:13:36.637Z,8.32
2023-10-25T19:16:04.795Z,4.97
2023-10-25T19:18:34.151Z,5.05
2023-10-25T19:21:02.589Z,5.57
2023-10-25T19:23:30.594Z,2.90
2023-10-25T19:25:58.524Z,4.63
2023-10-25T19:28:26.470Z,7.25
2023-10-25T19:30:56.733Z,5.35
2023-10-25T19:33:24.840Z,5.03
2023-10-25T19:35:53.170Z,5.25
2023-10-25T19:38:21.100Z,8.52
2023-10-25T19:40:48.999Z,4.55
2023-10-25T19:43:18.613Z,4.07
2023-10-25T19:45:46.574Z,4.20
2023-10-25T19:48:15.898Z,9.43
2023-10-25T19:50:43.979Z,5.10
2023-10-25T19:53:11.971Z,4.63
2023-10-25T19:55:39.887Z,8.45
2023-10-25T19:58:07.912Z,4.28
2023-10-25T20:00:35.829Z,5.68
2023-10-25T20:03:03.879Z,3.08
2023-10-25T20:05:33.173Z,4.45
2023-10-25T20:08:01.154Z,5.97
2023-10-25T20:10:29.106Z,5.63
2023-10-25T20:12:57.625Z,6.93
2023-10-25T20:15:25.958Z,6.63
2023-10-25T20:17:53.951Z,5.22
2023-10-25T20:20:21.963Z,3.65
2023-10-25T20:22:51.182Z,4.82
2023-10-25T20:25:19.044Z,3.40
2023-10-25T20:27:46.953Z,2.67
2023-10-25T20:30:14.943Z,6.50
2023-10-25T20:32:42.957Z,4.80
2023-10-25T20:35:10.894Z,3.05
2023-10-25T20:37:38.752Z,4.15
2023-10-25T20:40:08.917Z,2.38
2023-10-25T20:42:36.845Z,2.55
2023-10-25T20:45:05.261Z,3.13
2023-10-25T20:47:33.155Z,2.25
2023-10-25T20:50:01.110Z,4.65
2023-10-25T20:52:29.034Z,5.70
2023-10-25T20:54:57.380Z,6.32
2023-10-25T20:57:26.721Z,7.30
2023-10-25T20:59:54.825Z,3.38
2023-10-25T21:02:23.007Z,2.60
2023-10-25T21:04:50.990Z,3.35
2023-10-25T21:07:21.445Z,3.55
2023-10-25T21:09:49.429Z,4.88
2023-10-25T21:12:17.494Z,3.92
2023-10-25T21:14:47.071Z,5.68
2023-10-25T21:17:15.031Z,3.75
2023-10-25T21:19:42.896Z,2.47
2023-10-25T21:22:10.835Z,5.22
2023-10-25T21:24:38.698Z,1.85
2023-10-25T21:27:06.623Z,2.17
2023-10-25T21:29:34.509Z,6.32
2023-10-25T21:32:03.760Z,2.72
2023-10-25T21:34:31.843Z,5.55
2023-10-25T21:36:59.931Z,3.05
2023-10-25T21:39:27.904Z,6.70
2023-10-25T21:41:56.427Z,2.90
2023-10-25T21:44:24.471Z,5.93
2023-10-25T21:46:52.385Z,6.07
2023-10-25T21:49:21.664Z,3.55
2023-10-25T21:51:49.638Z,1.88
2023-10-25T21:54:17.712Z,2.13
2023-10-25T21:56:45.669Z,3.83
2023-10-25T21:59:50.435Z,1.70
2023-10-25T22:02:02.306Z,4.50
2023-10-25T22:04:31.743Z,2.25
2023-10-25T22:07:00.390Z,1.98
2023-10-25T22:09:28.837Z,5.18
2023-10-25T22:11:57.415Z,2.05
2023-10-25T22:14:25.417Z,2.72
2023-10-25T22:16:53.338Z,2.42
2023-10-25T22:19:21.297Z,5.05
2023-10-25T22:21:50.583Z,2.58
2023-10-25T22:24:18.869Z,2.90
2023-10-25T22:26:49.036Z,4.32
2023-10-25T22:29:18.157Z,1.35
2023-10-25T22:31:46.416Z,2.53
2023-10-25T22:34:19.253Z,2.03
2023-10-25T22:36:49.803Z,3.80
2023-10-25T22:39:20.163Z,1.40
2023-10-25T22:41:50.680Z,4.82
2023-10-25T22:44:18.644Z,1.60
2023-10-25T22:46:46.546Z,1.92
2023-10-25T22:49:14.484Z,8.35
2023-10-25T22:51:42.422Z,5.93
2023-10-25T22:54:10.337Z,3.75
2023-10-25T22:56:39.577Z,9.93
2023-10-25T22:59:07.456Z,1.98
2023-10-25T23:01:35.365Z,3.22
2023-10-25T23:04:03.432Z,5.88
2023-10-25T23:06:33.765Z,3.58
2023-10-25T23:09:01.859Z,7.10
2023-10-25T23:11:29.741Z,6.63
2023-10-25T23:13:59.000Z,3.45
2023-10-25T23:16:26.893Z,6.22
2023-10-25T23:18:58.481Z,2.05
2023-10-25T23:21:26.523Z,3.95
2023-10-25T23:23:54.528Z,2.05
2023-10-25T23:26:22.506Z,2.78
2023-10-25T23:28:50.385Z,1.92
2023-10-25T23:31:19.702Z,1.58
2023-10-25T23:33:47.570Z,2.45
2023-10-25T23:36:15.553Z,2.55
2023-10-25T23:38:43.532Z,1.98
2023-10-25T23:41:11.490Z,1.75
2023-10-25T23:43:39.344Z,2.60
2023-10-25T23:46:08.094Z,2.20
2023-10-25T23:48:37.486Z,1.55
2023-10-25T23:51:05.685Z,2.40
2023-10-25T23:53:33.630Z,4.47
2023-10-25T23:56:35.889Z,2.03
2023-10-25T23:58:49.457Z,1.90
